Time;durP1;ratioP1;P1;durP2;ratioP2;P2;SDS_P1;SDS_P2;PMS_P1;PMS_P2;Temp;Humidity;BMP_temperature;BMP_pressure;BME280_temperature;BME280_humidity;BME280_pressure;Samples;Min_cycle;Max_cycle;Signal;HPM_P1;HPM_P2
2022/07/09 00:00:06;;;;;;;5.85;2.88;;;;;;;20.35;47.75;101045.22;5030111;28;20056;-81
2022/07/09 00:02:36;;;;;;;4.88;2.35;;;;;;;20.38;47.86;101046.75;4992989;28;20069;-81
2022/07/09 00:05:03;;;;;;;4.85;2.70;;;;;;;20.34;48.04;101046.22;4991189;28;20064;-81
2022/07/09 00:07:33;;;;;;;5.82;3.05;;;;;;;20.33;48.01;101051.81;5021125;28;20448;-81
2022/07/09 00:09:59;;;;;;;3.38;2.40;;;;;;;20.34;47.83;101040.00;5025989;28;20580;-80
2022/07/09 00:12:26;;;;;;;6.75;3.83;;;;;;;20.33;47.76;101036.47;5022180;28;20048;-81
2022/07/09 00:14:53;;;;;;;4.75;2.72;;;;;;;20.26;48.38;101043.53;5027237;28;20124;-81
2022/07/09 00:17:20;;;;;;;5.85;2.70;;;;;;;20.21;48.72;101040.50;5040922;28;20045;-82
2022/07/09 00:19:46;;;;;;;5.75;3.22;;;;;;;20.18;49.27;101038.16;4991457;28;20057;-89
2022/07/09 00:22:13;;;;;;;4.72;2.83;;;;;;;20.14;49.38;101042.19;4992869;28;20045;-90
2022/07/09 00:24:41;;;;;;;2.95;2.65;;;;;;;20.09;49.54;101039.16;5035990;28;20057;-89
2022/07/09 00:27:08;;;;;;;4.35;2.60;;;;;;;20.04;49.83;101041.53;4999892;28;20049;-89
2022/07/09 00:29:34;;;;;;;3.55;2.90;;;;;;;20.00;49.95;101037.47;5008545;28;20452;-87
2022/07/09 00:32:01;;;;;;;3.65;2.70;;;;;;;19.98;50.03;101034.13;4995852;28;20054;-86
2022/07/09 00:34:28;;;;;;;3.30;2.70;;;;;;;19.92;50.10;101035.59;4988346;28;20120;-87
2022/07/09 00:36:56;;;;;;;4.85;2.70;;;;;;;19.89;50.39;101035.94;5042513;28;20411;-87
2022/07/09 00:39:22;;;;;;;4.82;2.75;;;;;;;19.88;49.75;101027.03;5027086;28;20897;-86
2022/07/09 00:41:49;;;;;;;5.93;2.75;;;;;;;19.86;49.68;101029.03;5031620;28;20552;-87
2022/07/09 00:44:16;;;;;;;6.45;2.92;;;;;;;19.90;49.40;101024.16;5027508;28;20148;-87
2022/07/09 00:46:44;;;;;;;6.05;2.78;;;;;;;19.88;49.42;101028.88;5025384;28;20416;-81
2022/07/09 00:49:11;;;;;;;8.68;3.45;;;;;;;19.86;49.34;101025.50;5040268;28;20048;-81
2022/07/09 00:51:38;;;;;;;7.43;3.13;;;;;;;19.82;49.88;101024.13;5024048;28;20049;-81
2022/07/09 00:54:05;;;;;;;5.07;2.72;;;;;;;19.78;50.28;101030.88;5013543;28;20044;-82
2022/07/09 00:56:32;;;;;;;5.45;2.95;;;;;;;19.78;50.38;101020.94;4984350;28;20053;-89
2022/07/09 00:58:59;;;;;;;5.43;2.83;;;;;;;19.79;49.58;101022.63;5020148;28;20045;-89
2022/07/09 01:01:26;;;;;;;5.50;2.97;;;;;;;19.83;49.68;101025.84;5011920;28;20041;-88
2022/07/09 01:03:53;;;;;;;6.95;2.83;;;;;;;19.83;49.40;101015.06;5024781;28;20046;-89
2022/07/09 01:06:20;;;;;;;3.78;2.70;;;;;;;19.82;49.43;101013.34;5023297;28;20038;-89
2022/07/09 01:08:47;;;;;;;4.20;2.70;;;;;;;19.84;49.32;101008.66;5008782;28;20738;-89
2022/07/09 01:11:14;;;;;;;5.60;3.25;;;;;;;19.79;49.36;101013.69;4990926;28;20159;-89
2022/07/09 01:13:42;;;;;;;4.28;3.00;;;;;;;19.79;49.60;101005.63;4997354;28;20049;-89
2022/07/09 01:16:14;;;;;;;5.65;3.00;;;;;;;19.75;49.69;100999.72;5019319;28;20523;-89
2022/07/09 01:18:45;;;;;;;;;;;;;;;19.70;50.14;101005.63;5027091;28;20556;-87
2022/07/09 01:21:13;;;;;;;3.22;2.55;;;;;;;19.72;49.65;101003.59;5050330;28;20432;-87
2022/07/09 01:23:40;;;;;;;6.45;2.50;;;;;;;19.70;49.59;100994.84;4986153;28;20667;-87
2022/07/09 01:26:07;;;;;;;5.05;2.90;;;;;;;19.67;49.55;100997.88;5018392;28;20053;-87
2022/07/09 01:28:34;;;;;;;3.20;2.72;;;;;;;19.65;49.77;100994.47;5027009;28;20044;-87
2022/07/09 01:31:01;;;;;;;4.18;2.60;;;;;;;19.63;49.64;100992.94;5053750;28;20508;-82
2022/07/09 01:33:34;;;;;;;4.65;2.90;;;;;;;19.58;50.29;100993.44;5004837;28;20077;-89
2022/07/09 01:36:01;;;;;;;7.05;2.85;;;;;;;19.59;49.89;100992.44;4982150;28;20639;-88
2022/07/09 01:38:28;;;;;;;4.68;3.00;;;;;;;19.53;49.93;100985.84;5035247;28;20055;-87
2022/07/09 01:40:54;;;;;;;5.43;3.15;;;;;;;19.56;49.87;100984.66;5011248;28;20042;-87
2022/07/09 01:43:21;;;;;;;5.53;3.10;;;;;;;19.56;49.82;100983.84;5024984;28;20053;-86
2022/07/09 01:45:48;;;;;;;5.97;3.10;;;;;;;19.54;50.16;100981.31;5013605;28;20069;-86
2022/07/09 01:48:15;;;;;;;6.10;3.40;;;;;;;19.52;50.14;100983.34;5003607;28;20486;-80
2022/07/09 01:50:43;;;;;;;4.15;2.78;;;;;;;19.51;50.04;100982.50;5004775;28;20508;-81
2022/07/09 01:53:10;;;;;;;5.00;2.85;;;;;;;19.49;50.01;100973.72;5057558;28;20034;-80
2022/07/09 01:55:36;;;;;;;8.25;3.30;;;;;;;19.48;50.33;100979.28;5007749;28;20400;-81
2022/07/09 01:58:04;;;;;;;5.65;2.83;;;;;;;19.47;50.04;100981.13;5012112;28;20049;-81
2022/07/09 02:00:31;;;;;;;3.35;2.72;;;;;;;19.42;50.20;100983.47;4998249;28;20042;-82
2022/07/09 02:02:58;;;;;;;4.97;2.78;;;;;;;19.43;50.16;100984.31;4998345;28;20041;-81
2022/07/09 02:05:29;;;;;;;6.40;2.60;;;;;;;19.40;50.46;100982.78;5003397;28;20041;-81
2022/07/09 02:07:56;;;;;;;3.72;2.67;;;;;;;19.36;50.33;100984.16;5052996;28;20395;-81
2022/07/09 02:10:22;;;;;;;5.35;2.70;;;;;;;19.38;50.28;100981.28;5027442;28;20045;-88
2022/07/09 02:12:49;;;;;;;3.97;2.85;;;;;;;19.35;50.32;100978.91;5023649;28;20095;-88
2022/07/09 02:15:16;;;;;;;4.57;3.05;;;;;;;19.30;50.21;100977.56;5023688;28;20050;-88
2022/07/09 02:17:42;;;;;;;3.28;2.58;;;;;;;19.27;50.38;100985.97;4997297;28;20045;-88
2022/07/09 02:20:09;;;;;;;3.88;2.60;;;;;;;19.26;50.48;100980.75;5043958;28;20044;-88
2022/07/09 02:22:36;;;;;;;5.30;3.00;;;;;;;19.22;50.37;100982.91;5046917;28;20074;-87
2022/07/09 02:25:03;;;;;;;4.50;2.90;;;;;;;19.20;50.61;100976.84;5008628;28;20041;-88
2022/07/09 02:27:30;;;;;;;5.25;2.95;;;;;;;19.16;51.03;100978.19;4997408;28;20041;-81
2022/07/09 02:29:57;;;;;;;4.50;2.92;;;;;;;19.16;50.79;100978.19;5008105;28;20041;-85
2022/07/09 02:32:23;;;;;;;5.75;2.90;;;;;;;19.17;50.82;100974.50;5006843;28;20044;-81
2022/07/09 02:34:50;;;;;;;6.47;3.00;;;;;;;19.15;50.97;100972.97;5041948;28;20037;-81
2022/07/09 02:37:17;;;;;;;3.92;2.92;;;;;;;19.09;51.15;100974.47;5032562;28;20107;-86
2022/07/09 02:39:44;;;;;;;3.63;2.78;;;;;;;19.05;50.97;100976.63;5027702;28;20049;-81
2022/07/09 02:42:11;;;;;;;5.95;3.10;;;;;;;19.03;51.10;100981.34;5013190;28;20045;-86
2022/07/09 02:44:38;;;;;;;5.80;2.78;;;;;;;18.98;51.30;100981.00;4991270;28;20069;-85
2022/07/09 02:47:05;;;;;;;3.33;2.60;;;;;;;19.01;51.25;100987.91;5031097;28;20041;-80
2022/07/09 02:49:31;;;;;;;4.25;3.15;;;;;;;18.95;51.17;100981.31;5007187;28;20049;-81
2022/07/09 02:51:59;;;;;;;5.10;3.03;;;;;;;18.91;51.49;100984.50;5024102;28;20049;-80
2022/07/09 02:54:26;;;;;;;6.65;2.92;;;;;;;18.89;51.77;100983.81;4997844;28;20112;-80
2022/07/09 02:56:53;;;;;;;3.55;2.63;;;;;;;18.89;51.63;100990.03;4992313;28;20057;-80
2022/07/09 02:59:20;;;;;;;3.67;2.85;;;;;;;18.86;51.72;100990.38;5042805;28;20054;-83
2022/07/09 03:01:47;;;;;;;5.30;3.00;;;;;;;18.79;51.78;100984.78;5012293;28;20444;-81
2022/07/09 03:04:14;;;;;;;5.28;2.80;;;;;;;18.77;51.97;100980.56;5025532;28;20049;-86
2022/07/09 03:06:40;;;;;;;4.03;2.78;;;;;;;18.73;51.90;100990.78;5029962;28;20049;-84
2022/07/09 03:09:07;;;;;;;3.80;2.83;;;;;;;18.71;51.71;100987.41;5002994;28;20103;-80
2022/07/09 03:11:34;;;;;;;5.63;3.20;;;;;;;18.69;51.93;100992.09;5050205;28;20048;-88
2022/07/09 03:14:00;;;;;;;5.13;3.40;;;;;;;18.65;52.13;100993.44;5009306;28;20397;-88
2022/07/09 03:16:27;;;;;;;3.67;2.90;;;;;;;18.61;52.51;100994.75;5021726;28;20084;-81
2022/07/09 03:18:54;;;;;;;4.38;3.00;;;;;;;18.61;52.47;100989.38;5040987;28;20049;-86
2022/07/09 03:21:21;;;;;;;9.00;3.25;;;;;;;18.60;52.49;100987.69;5012061;28;20072;-86
2022/07/09 03:23:48;;;;;;;4.10;2.85;;;;;;;18.56;52.45;100984.47;5015283;28;20057;-86
2022/07/09 03:26:15;;;;;;;5.05;2.70;;;;;;;18.54;52.41;100980.25;5044081;28;20041;-86
2022/07/09 03:28:41;;;;;;;8.15;3.28;;;;;;;18.51;52.44;100977.88;5008984;28;20122;-87
2022/07/09 03:31:08;;;;;;;4.47;3.03;;;;;;;18.49;52.60;100986.09;5010455;28;20709;-81
2022/07/09 03:33:36;;;;;;;5.13;2.83;;;;;;;18.44;52.68;100978.53;5020017;28;20139;-82
2022/07/09 03:36:04;;;;;;;6.00;2.90;;;;;;;18.40;53.40;100979.00;5027439;28;20049;-81
2022/07/09 03:38:30;;;;;;;4.63;2.60;;;;;;;18.48;53.39;100980.91;5038445;28;20047;-80
2022/07/09 03:40:58;;;;;;;6.13;2.58;;;;;;;18.47;53.31;100982.75;5000105;28;20135;-81
2022/07/09 03:43:24;;;;;;;5.63;2.88;;;;;;;18.46;53.32;100977.53;5034821;28;20413;-86
2022/07/09 03:45:51;;;;;;;8.48;3.05;;;;;;;18.40;53.33;100984.38;5040388;28;20041;-86
2022/07/09 03:48:18;;;;;;;3.63;3.03;;;;;;;18.37;53.41;100984.69;4985968;28;20111;-86
2022/07/09 03:50:44;;;;;;;4.97;2.90;;;;;;;18.35;53.65;100982.16;5028018;28;20042;-81
2022/07/09 03:53:11;;;;;;;3.10;2.80;;;;;;;18.31;54.04;100983.47;4995885;28;20041;-80
2022/07/09 03:56:08;;;;;;;4.68;3.10;;;;;;;18.37;54.83;100977.47;5018366;28;20452;-81
2022/07/09 03:58:35;;;;;;;5.40;3.00;;;;;;;18.65;54.63;100978.13;4973016;28;20047;-80
2022/07/09 04:01:03;;;;;;;4.30;2.58;;;;;;;18.78;53.81;100982.25;5006629;28;20051;-86
2022/07/09 04:03:30;;;;;;;4.18;2.80;;;;;;;18.77;53.58;100988.63;5059932;28;20442;-86
2022/07/09 04:05:57;;;;;;;4.25;2.50;;;;;;;18.75;53.55;100987.91;5007873;28;20124;-88
2022/07/09 04:08:23;;;;;;;4.90;3.03;;;;;;;18.67;53.67;100988.72;5040699;28;20045;-80
2022/07/09 04:10:50;;;;;;;4.20;2.80;;;;;;;18.65;53.85;100982.69;4988681;28;20414;-80
2022/07/09 04:13:17;;;;;;;3.00;2.70;;;;;;;18.64;53.98;100981.81;5030021;28;20141;-80
2022/07/09 04:15:45;;;;;;;4.18;2.92;;;;;;;18.68;54.09;100986.91;5007166;28;20088;-86
2022/07/09 04:18:14;;;;;;;4.22;2.92;;;;;;;18.80;54.16;100985.63;5025855;28;20173;-86
2022/07/09 04:20:42;;;;;;;3.17;2.63;;;;;;;18.92;54.08;100986.19;5027880;28;20060;-85
2022/07/09 04:23:08;;;;;;;3.55;2.67;;;;;;;18.99;53.70;100993.44;5010590;28;20128;-86
2022/07/09 04:25:35;;;;;;;4.32;2.90;;;;;;;19.06;53.48;100990.97;5025896;28;20049;-87
2022/07/09 04:28:02;;;;;;;6.43;3.10;;;;;;;19.11;53.65;100993.13;4990072;28;20049;-84
2022/07/09 04:30:29;;;;;;;4.03;2.85;;;;;;;19.08;53.59;100994.31;4993586;28;20607;-87
2022/07/09 04:32:56;;;;;;;7.05;3.10;;;;;;;19.09;53.27;100998.69;5012729;28;20037;-87
2022/07/09 04:35:23;;;;;;;5.05;3.17;;;;;;;19.05;53.72;100998.16;4991715;28;20049;-81
2022/07/09 04:37:50;;;;;;;4.93;3.22;;;;;;;19.02;53.59;100998.50;5033330;28;20040;-81
2022/07/09 04:40:17;;;;;;;10.15;3.65;;;;;;;18.97;53.31;101000.00;5010095;28;20132;-80
2022/07/09 04:42:44;;;;;;;8.35;3.30;;;;;;;18.93;53.69;100996.81;4998085;28;20049;-85
2022/07/09 04:45:11;;;;;;;4.25;3.17;;;;;;;18.93;53.67;100991.41;5002364;28;20046;-87
2022/07/09 04:47:37;;;;;;;5.45;3.42;;;;;;;18.89;54.01;100992.72;4993201;28;20041;-80
2022/07/09 04:50:04;;;;;;;5.40;3.30;;;;;;;18.88;54.15;100996.44;5013628;28;20178;-80
2022/07/09 04:52:31;;;;;;;5.72;3.67;;;;;;;18.91;54.07;101001.50;4993691;28;20485;-80
2022/07/09 04:54:58;;;;;;;3.95;2.75;;;;;;;18.93;54.07;100993.25;5023730;28;20033;-81
2022/07/09 04:57:24;;;;;;;5.05;3.05;;;;;;;19.00;53.86;100991.59;4978598;28;20066;-81
2022/07/09 04:59:51;;;;;;;6.85;2.90;;;;;;;19.06;54.11;101001.72;5014679;28;20516;-81
2022/07/09 05:02:18;;;;;;;5.22;3.05;;;;;;;19.15;53.97;100998.03;5003194;28;20951;-81
2022/07/09 05:04:45;;;;;;;4.43;3.10;;;;;;;19.22;53.85;100992.84;5021657;28;20072;-81
2022/07/09 05:07:11;;;;;;;4.13;3.30;;;;;;;19.26;53.52;101000.44;4982038;28;20049;-81
2022/07/09 05:09:38;;;;;;;3.80;3.05;;;;;;;19.25;53.02;100996.06;5032307;28;20037;-82
2022/07/09 05:12:05;;;;;;;4.65;2.83;;;;;;;19.21;52.82;101002.78;5012074;28;20037;-81
2022/07/09 05:14:32;;;;;;;4.82;3.22;;;;;;;19.17;53.20;100996.03;5024498;28;20037;-81
2022/07/09 05:16:59;;;;;;;5.15;3.20;;;;;;;19.21;52.87;100994.72;5010408;28;20048;-82
2022/07/09 05:19:26;;;;;;;4.25;3.38;;;;;;;19.23;53.05;100994.53;4986261;28;20396;-81
2022/07/09 05:21:53;;;;;;;5.60;3.55;;;;;;;19.26;52.96;100988.84;4987189;28;20046;-81
2022/07/09 05:24:20;;;;;;;5.25;3.40;;;;;;;19.33;53.34;100994.41;5010896;28;20056;-81
2022/07/09 05:26:46;;;;;;;4.03;3.17;;;;;;;19.39;53.14;100982.97;5023638;28;20052;-81
2022/07/09 05:29:13;;;;;;;4.60;3.55;;;;;;;19.43;53.23;100979.75;5025516;28;20056;-81
2022/07/09 05:31:40;;;;;;;6.78;3.65;;;;;;;19.45;53.30;100987.69;5002183;28;20045;-82
2022/07/09 05:34:08;;;;;;;8.93;3.63;;;;;;;19.45;53.34;100979.59;5013117;28;20053;-89
2022/07/09 05:36:35;;;;;;;6.32;3.58;;;;;;;19.48;53.10;100985.50;4988031;28;20485;-88
2022/07/09 05:39:02;;;;;;;5.82;3.50;;;;;;;19.47;52.90;100985.69;5024586;28;20053;-82
2022/07/09 05:41:28;;;;;;;6.60;3.42;;;;;;;19.46;53.43;100984.84;5010303;28;20052;-88
2022/07/09 05:43:55;;;;;;;4.40;2.85;;;;;;;19.51;53.11;100982.50;4995722;28;20046;-87
2022/07/09 05:46:22;;;;;;;5.97;3.45;;;;;;;19.57;53.43;100980.16;4968986;28;20049;-85
2022/07/09 05:48:49;;;;;;;5.35;3.58;;;;;;;19.56;53.18;100979.28;5004811;28;20060;-86
2022/07/09 05:55:23;;;;;;;3.50;3.20;;;;;;;19.59;53.79;100978.97;4973270;28;20029;-88
2022/07/09 05:57:50;;;;;;;3.83;3.25;;;;;;;19.59;53.48;100980.78;4989363;28;20539;-88
2022/07/09 06:00:17;;;;;;;5.07;4.25;;;;;;;19.62;53.35;100978.63;4994835;28;20052;-88
2022/07/09 06:02:44;;;;;;;6.35;3.05;;;;;;;19.63;53.35;100972.22;5008788;28;20045;-89
2022/07/09 06:05:11;;;;;;;5.35;3.50;;;;;;;19.72;53.33;100970.44;4968955;28;20049;-89
2022/07/09 06:07:44;;;;;;;6.68;3.42;;;;;;;19.80;53.27;100973.13;4983449;28;20049;-89
2022/07/09 06:10:13;;;;;;;7.10;3.83;;;;;;;19.89;53.40;100966.69;4986534;28;20423;-81
2022/07/09 06:12:40;;;;;;;4.72;3.28;;;;;;;19.91;53.43;100974.63;4975661;28;20211;-81
2022/07/09 06:15:08;;;;;;;5.00;3.83;;;;;;;19.90;52.73;100972.94;4986858;28;20512;-87
2022/07/09 06:17:34;;;;;;;4.93;2.95;;;;;;;19.90;52.96;100973.78;4961876;28;20548;-82
2022/07/09 06:20:01;;;;;;;7.95;3.60;;;;;;;19.93;52.91;100980.69;4952203;28;20077;-81
2022/07/09 06:22:28;;;;;;;5.95;3.72;;;;;;;20.00;52.93;100968.22;4993095;28;20077;-80
2022/07/09 06:24:55;;;;;;;6.72;3.75;;;;;;;19.99;53.14;100968.38;4944006;28;20062;-82
2022/07/09 06:27:25;;;;;;;6.78;3.80;;;;;;;20.02;52.55;100968.88;4974314;28;20052;-80
2022/07/09 06:29:51;;;;;;;6.32;3.45;;;;;;;20.07;52.42;100976.47;4990253;28;20133;-80
2022/07/09 06:32:18;;;;;;;6.32;4.18;;;;;;;20.07;52.43;100974.59;4993234;28;20065;-87
2022/07/09 06:34:45;;;;;;;9.45;3.83;;;;;;;20.03;52.10;100967.03;4967511;28;20059;-86
2022/07/09 06:37:12;;;;;;;9.48;4.07;;;;;;;20.01;52.68;100966.38;4988058;28;20461;-90
2022/07/09 06:39:45;;;;;;;8.13;3.80;;;;;;;20.05;52.81;100965.88;4992739;28;20823;-91
2022/07/09 06:42:13;;;;;;;8.57;4.13;;;;;;;20.09;52.96;100963.66;4978175;28;20397;-91
2022/07/09 06:44:44;;;;;;;11.52;3.47;;;;;;;20.11;52.99;100961.63;4988567;28;20123;-87
2022/07/09 06:47:11;;;;;;;5.28;3.35;;;;;;;20.12;52.80;100971.41;4993543;28;20061;-87
2022/07/09 06:49:38;;;;;;;5.68;3.70;;;;;;;20.06;52.72;100954.06;5022172;28;20165;-82
2022/07/09 06:52:05;;;;;;;5.10;3.42;;;;;;;20.13;52.90;100963.16;5028507;28;20447;-82
2022/07/09 06:54:32;;;;;;;7.30;3.40;;;;;;;20.26;52.51;100961.78;5023860;28;20046;-84
2022/07/09 06:56:58;;;;;;;6.03;3.60;;;;;;;20.28;52.88;100959.78;5004008;28;20133;-77
2022/07/09 06:59:32;;;;;;;6.53;3.10;;;;;;;20.28;53.13;100963.31;5011441;28;20056;-78
2022/07/09 07:01:58;;;;;;;6.35;3.90;;;;;;;20.28;53.51;100955.22;5005468;28;20045;-79
2022/07/09 07:04:25;;;;;;;7.18;4.13;;;;;;;20.27;53.23;100958.91;5032886;28;20508;-82
2022/07/09 07:07:43;;;;;;;7.07;3.40;;;;;;;20.29;53.62;100962.28;4993468;28;20663;-82
2022/07/09 07:10:13;;;;;;;4.10;3.15;;;;;;;20.34;53.24;100961.78;4963830;28;20502;-79
2022/07/09 07:12:40;;;;;;;7.88;3.92;;;;;;;20.37;53.83;100956.03;4966262;28;20045;-79
2022/07/09 07:15:58;;;;;;;5.03;3.78;;;;;;;20.33;53.54;100960.94;5029180;28;20545;-79
2022/07/09 07:18:27;;;;;;;4.57;3.25;;;;;;;20.44;53.11;100964.28;4970540;28;20049;-80
2022/07/09 07:20:53;;;;;;;8.00;4.38;;;;;;;20.48;53.07;100961.06;5030901;28;20033;-79
2022/07/09 07:23:25;;;;;;;4.63;3.42;;;;;;;20.47;53.36;100964.75;4989135;28;20099;-79
2022/07/09 07:25:54;;;;;;;5.38;3.67;;;;;;;20.51;53.16;100962.59;5001185;28;20053;-80
2022/07/09 07:28:21;;;;;;;5.80;3.55;;;;;;;20.53;53.26;100957.81;5020428;28;20593;-83
2022/07/09 07:30:48;;;;;;;7.85;3.65;;;;;;;20.55;53.44;100959.38;4993725;28;20038;-84
2022/07/09 07:33:15;;;;;;;10.77;3.75;;;;;;;20.54;53.45;100952.31;5026720;28;20417;-84
2022/07/09 07:35:43;;;;;;;5.57;3.60;;;;;;;20.55;54.13;100958.53;5014317;28;20504;-86
2022/07/09 07:38:10;;;;;;;6.80;3.30;;;;;;;20.63;53.71;100958.50;5028267;28;20050;-84
2022/07/09 07:40:37;;;;;;;9.27;3.95;;;;;;;20.71;53.88;100953.09;5002157;28;20128;-84
2022/07/09 07:43:04;;;;;;;6.40;3.50;;;;;;;20.73;53.87;100942.94;5014337;28;20056;-89
2022/07/09 07:45:31;;;;;;;8.02;3.35;;;;;;;20.79;54.09;100950.34;4985790;28;20401;-85
2022/07/09 07:47:58;;;;;;;5.45;3.70;;;;;;;20.83;53.77;100945.44;5036176;28;20105;-84
2022/07/09 07:50:24;;;;;;;3.83;2.75;;;;;;;20.91;53.64;100944.56;4981652;28;20047;-85
2022/07/09 07:52:51;;;;;;;5.90;3.10;;;;;;;20.90;54.32;100946.41;4996729;28;20527;-85
2022/07/09 07:55:18;;;;;;;4.55;2.80;;;;;;;20.99;53.73;100945.38;4992081;28;20456;-85
2022/07/09 07:57:45;;;;;;;5.18;3.33;;;;;;;20.96;53.72;100943.03;5022395;28;20040;-85
2022/07/09 08:00:12;;;;;;;5.93;3.00;;;;;;;20.97;53.85;100946.56;4998147;28;20100;-83
2022/07/09 08:02:38;;;;;;;8.45;3.17;;;;;;;20.97;53.53;100933.91;5031017;28;20052;-87
2022/07/09 08:05:32;;;;;;;5.57;3.25;;;;;;;20.94;53.10;100934.25;5003819;28;20063;-88
2022/07/09 08:07:58;;;;;;;9.27;3.60;;;;;;;21.06;53.63;100931.97;4974064;28;20739;-88
2022/07/09 08:10:26;;;;;;;8.00;3.50;;;;;;;21.13;53.32;100926.72;4993257;28;20045;-88
2022/07/09 08:12:58;;;;;;;5.75;3.05;;;;;;;21.21;53.65;100923.97;4981409;28;20043;-83
2022/07/09 08:15:24;;;;;;;5.70;3.42;;;;;;;21.25;53.79;100919.91;5006023;28;20042;-82
2022/07/09 08:17:51;;;;;;;5.95;3.50;;;;;;;21.37;53.13;100918.47;4985813;28;20091;-84
2022/07/09 08:20:18;;;;;;;5.90;2.88;;;;;;;21.35;53.21;100919.69;4994876;28;20029;-84
2022/07/09 08:22:44;;;;;;;8.20;3.63;;;;;;;21.40;53.46;100915.44;5005181;28;20064;-84
2022/07/09 08:25:12;;;;;;;4.53;3.20;;;;;;;21.43;53.55;100911.53;5039511;28;20042;-83
2022/07/09 08:27:40;;;;;;;4.90;2.80;;;;;;;21.56;53.15;100913.63;5051500;28;20095;-84
2022/07/09 08:30:07;;;;;;;5.28;2.83;;;;;;;21.54;52.93;100903.00;5008116;28;20053;-83
2022/07/09 08:32:36;;;;;;;6.68;3.10;;;;;;;21.55;52.97;100904.69;4991310;28;20052;-83
2022/07/09 08:35:03;;;;;;;5.18;3.00;;;;;;;21.58;53.24;100906.19;5013106;28;20049;-83
2022/07/09 08:37:29;;;;;;;7.38;2.60;;;;;;;21.65;53.08;100905.28;4981111;28;20485;-83
2022/07/09 08:39:56;;;;;;;4.65;2.47;;;;;;;21.72;52.89;100894.56;4978830;28;20041;-84
2022/07/09 08:42:23;;;;;;;3.08;1.65;;;;;;;21.79;52.13;100882.00;5028483;28;20072;-84
2022/07/09 08:44:50;;;;;;;5.00;1.65;;;;;;;21.91;51.38;100890.50;4989405;28;20049;-83
2022/07/09 08:47:17;;;;;;;3.80;1.73;;;;;;;22.01;50.64;100885.66;5001392;28;20042;-83
2022/07/09 08:49:45;;;;;;;1.40;1.27;;;;;;;22.08;49.69;100881.22;5005752;28;20053;-84
2022/07/09 08:52:12;;;;;;;4.88;1.85;;;;;;;22.17;50.17;100873.81;4997245;28;20057;-84
2022/07/09 08:54:41;;;;;;;2.83;1.70;;;;;;;22.18;50.19;100878.19;5007594;28;20049;-83
2022/07/09 08:57:08;;;;;;;4.30;1.80;;;;;;;22.26;49.69;100880.00;5024964;28;20057;-78
2022/07/09 08:59:35;;;;;;;2.72;1.70;;;;;;;22.29;48.88;100874.25;5024733;28;20099;-84
2022/07/09 09:02:08;;;;;;;3.38;1.83;;;;;;;22.35;48.90;100867.22;5039418;28;20054;-83
2022/07/09 09:04:34;;;;;;;5.38;1.55;;;;;;;22.35;48.79;100868.06;4938593;28;20046;-83
2022/07/09 09:07:14;;;;;;;4.50;1.83;;;;;;;22.35;48.09;100859.13;4960023;28;20050;-84
2022/07/09 09:09:44;;;;;;;5.30;1.80;;;;;;;22.40;48.49;100853.97;4951935;28;20051;-82
2022/07/09 09:12:11;;;;;;;3.22;1.80;;;;;;;22.37;49.09;100857.91;4948070;28;20046;-84
2022/07/09 09:14:38;;;;;;;3.45;1.83;;;;;;;22.44;49.02;100856.13;4968433;28;20438;-84
2022/07/09 09:17:11;;;;;;;2.38;1.60;;;;;;;22.57;47.72;100854.59;4957663;28;20560;-84
2022/07/09 09:19:39;;;;;;;5.05;1.77;;;;;;;22.61;48.42;100845.91;4949748;28;20046;-83
2022/07/09 09:22:06;;;;;;;3.25;1.85;;;;;;;22.69;47.50;100843.06;4978384;28;20050;-87
2022/07/09 09:24:34;;;;;;;5.20;1.70;;;;;;;22.71;47.92;100840.19;4953813;28;20092;-87
2022/07/09 09:27:01;;;;;;;4.35;1.75;;;;;;;22.73;47.37;100836.25;4970422;28;20494;-88
2022/07/09 09:29:28;;;;;;;4.25;1.75;;;;;;;22.89;47.10;100847.91;4945642;28;20680;-83
2022/07/09 09:31:55;;;;;;;2.35;1.50;;;;;;;22.87;46.63;100841.81;4947646;28;20046;-82
2022/07/09 09:34:23;;;;;;;3.63;1.88;;;;;;;22.79;46.18;100839.25;4973573;28;20042;-78
2022/07/09 09:36:54;;;;;;;5.03;1.70;;;;;;;22.73;46.12;100841.69;4983036;28;20112;-82
2022/07/09 09:39:23;;;;;;;2.92;1.73;;;;;;;22.83;46.65;100840.53;5028048;28;20087;-82
2022/07/09 09:42:00;;;;;;;3.63;1.60;;;;;;;22.70;45.96;100844.78;5009304;28;20046;-84
2022/07/09 09:44:29;;;;;;;2.45;1.80;;;;;;;22.74;46.73;100845.22;4937154;28;20057;-83
2022/07/09 09:46:56;;;;;;;3.13;1.77;;;;;;;22.78;46.47;100848.41;5016563;28;20046;-84
2022/07/09 09:49:24;;;;;;;3.67;2.00;;;;;;;22.73;46.82;100848.97;4981825;28;20041;-83
2022/07/09 09:52:04;;;;;;;6.75;2.13;;;;;;;22.76;46.44;100844.00;5021539;28;20042;-85
2022/07/09 09:54:32;;;;;;;3.60;1.98;;;;;;;22.65;47.19;100847.22;4974449;28;20044;-82
2022/07/09 09:57:05;;;;;;;3.00;2.22;;;;;;;22.57;46.11;100843.75;4967575;28;20129;-86
2022/07/09 09:59:34;;;;;;;2.22;1.98;;;;;;;22.59;47.31;100849.84;4961914;28;20046;-86
2022/07/09 10:02:10;;;;;;;2.90;2.05;;;;;;;22.61;46.56;100843.19;4988211;28;20558;-88
2022/07/09 10:04:38;;;;;;;4.70;2.22;;;;;;;22.54;47.34;100847.69;4993743;28;20041;-87
2022/07/09 10:07:06;;;;;;;4.60;1.90;;;;;;;22.58;47.56;100843.59;5010877;28;20061;-86
2022/07/09 10:09:32;;;;;;;5.57;2.67;;;;;;;22.60;47.37;100846.13;4992119;28;20592;-84
2022/07/09 10:12:00;;;;;;;3.55;2.38;;;;;;;22.57;47.50;100846.47;5010692;28;20036;-85
2022/07/09 10:14:27;;;;;;;3.45;2.15;;;;;;;22.61;47.48;100843.19;4993160;28;20061;-84
2022/07/09 10:16:54;;;;;;;5.78;2.50;;;;;;;22.58;47.85;100838.16;5010418;28;20063;-87
2022/07/09 10:19:29;;;;;;;3.50;2.33;;;;;;;22.48;47.55;100843.88;5005912;28;20098;-84
2022/07/09 10:22:16;;;;;;;5.57;2.58;;;;;;;22.46;47.39;100845.94;4949367;28;20206;-84
2022/07/09 10:25:29;;;;;;;3.08;2.20;;;;;;;22.53;47.88;100846.84;4874311;28;20263;-83
2022/07/09 10:27:56;;;;;;;3.20;2.45;;;;;;;22.62;47.83;100833.19;4927684;28;20518;-83
2022/07/09 10:30:28;;;;;;;4.45;2.25;;;;;;;22.65;47.95;100833.69;4941463;28;20442;-84
2022/07/09 10:33:07;;;;;;;3.10;2.50;;;;;;;22.64;48.71;100831.16;4966602;28;20414;-84
2022/07/09 10:35:47;;;;;;;3.80;2.97;;;;;;;22.64;48.31;100829.28;4964640;28;20108;-84
2022/07/09 10:38:14;;;;;;;4.03;3.05;;;;;;;22.88;47.82;100832.69;4950475;28;20133;-83
2022/07/09 10:40:43;;;;;;;4.25;2.90;;;;;;;22.81;46.52;100842.59;4963756;28;20490;-84
2022/07/09 10:43:11;;;;;;;3.40;2.70;;;;;;;22.78;46.78;100838.41;4958554;28;20065;-84
2022/07/09 10:45:42;;;;;;;5.53;2.78;;;;;;;22.76;46.64;100826.91;4990862;28;20442;-84
2022/07/09 10:48:10;;;;;;;3.53;3.15;;;;;;;22.82;47.09;100828.88;4989880;28;20039;-84
2022/07/09 10:50:38;;;;;;;3.75;2.90;;;;;;;22.81;47.16;100824.47;4958337;28;20066;-84
2022/07/09 10:53:05;;;;;;;3.50;2.63;;;;;;;22.74;47.23;100819.00;4997611;28;20042;-83
2022/07/09 10:55:32;;;;;;;4.32;2.47;;;;;;;22.74;47.82;100827.13;5009206;28;20133;-84
2022/07/09 10:57:59;;;;;;;3.38;2.72;;;;;;;22.83;47.72;100819.72;5020592;28;20521;-84
2022/07/09 11:00:28;;;;;;;4.38;2.63;;;;;;;22.82;48.54;100806.34;5053365;28;20063;-83
2022/07/09 11:03:03;;;;;;;6.32;3.20;;;;;;;22.88;47.97;100808.31;4994101;28;20044;-84
2022/07/09 11:05:34;;;;;;;4.82;2.67;;;;;;;22.95;48.61;100793.81;5002826;28;20041;-84
2022/07/09 11:08:06;;;;;;;6.38;3.25;;;;;;;23.08;48.57;100782.28;4998922;28;20045;-83
2022/07/09 11:10:37;;;;;;;3.92;2.40;;;;;;;23.15;47.76;100774.19;5008894;28;20107;-83
2022/07/09 11:13:08;;;;;;;4.95;2.50;;;;;;;23.25;47.96;100765.75;5016351;28;20504;-83
2022/07/09 11:15:38;;;;;;;4.50;2.55;;;;;;;23.34;47.44;100761.88;5013084;28;20055;-86
2022/07/09 11:18:10;;;;;;;3.10;2.80;;;;;;;23.46;46.37;100760.28;5001874;28;20044;-82
2022/07/09 11:20:39;;;;;;;4.38;2.42;;;;;;;23.56;46.48;100763.50;5019208;28;20045;-85
2022/07/09 11:23:16;;;;;;;5.45;3.05;;;;;;;23.56;45.81;100749.06;5013571;28;20048;-84
2022/07/09 11:25:44;;;;;;;5.35;3.00;;;;;;;23.59;45.54;100763.09;5032902;28;20042;-84
2022/07/09 11:28:20;;;;;;;7.75;2.88;;;;;;;23.48;44.83;100763.63;4986688;28;20123;-84
2022/07/09 11:30:57;;;;;;;4.57;2.78;;;;;;;23.32;44.39;100763.94;4998221;28;20042;-81
2022/07/09 11:33:24;;;;;;;4.72;2.28;;;;;;;23.32;45.40;100767.47;4985906;28;20045;-83